aviador You're here:

EPMO Decoded Metar

in
Report Time2017-11-24 03:30:00
UTC Time2017-11-24 03:50:42
Flight Rules mvfr MVFR
Wind200° at 05 kt
W.Decomp.*RWY 26: 2.5 kt HW 4.3 kt LCW
W.Rank200° ranks 15
Current wind is below 200° avg. (6.4)
Visibility6000 m
Phenomena:N/A
Clouds:N/A
CeilingNone
Temp04°C
Dew Point04°C (100% RH)
AAT0.9°C
QNH1013 hPa
Raw Report
EPMO 240330Z 20005KT 6000 NSC 04/04 Q1013=

Extra information for EPMO:More info

Social comments